Lucas Paul — WDJ6498 — position and weather

sailwx.info

Track history (hours):
 
Tides and Currents Weather Stations Pressure Air Temp Water Temp Dewpoint Dewpoint Depression Visibility Wind Speed Wind Dir Waves Ship Positions

Lucas Paul

Owner: Devall Towing Third Generation, sulphur, LA. More information available from US FCC via Universal Licensing System and Coast Guard Vessel Documentation Center.

Last reported at 2018-Feb-25 03:46 UTC. Time now 2018-Feb-25 23:57 UTC.
Position N 29°47' W 095°06'.

Length 20 m.

Type: Towing. MMSI: 367798350.

Date/timePositionNaut miles runAvg speedWind from/ knotsBaromVisibWave heightAir tempDewpointWater temp
2018-Feb-25 03:46N 29°47' W 095°06'1 1.8
2018-Feb-25 03:22N 29°46' W 095°06'0 1.2
2018-Feb-25 03:00N 29°46' W 095°06'2 4.9
2018-Feb-25 02:30N 29°44' W 095°03'3 5.9
2018-Feb-25 02:00N 29°42' W 095°01'3 6.7
2018-Feb-25 01:30N 29°40' W 094°58'4 7.1
2018-Feb-25 01:01N 29°36' W 094°57'4 7.1
2018-Feb-25 00:30N 29°34' W 094°55'4 7.6
2018-Feb-25 00:00N 29°30' W 094°52'33 2.7
2018-Feb-24 11:53N 29°03' W 095°13'2 4.6
2018-Feb-24 11:29N 29°01' W 095°14'  
2018-Feb-20 14:28N 29°06' W 095°12'3 5.1
2018-Feb-20 13:51N 29°08' W 095°10'11 4.3
2018-Feb-20 11:26N 29°15' W 095°01'5 4.5
2018-Feb-20 10:14N 29°17' W 094°55'2 4.7
2018-Feb-20 09:46N 29°18' W 094°53'2 5.5
2018-Feb-20 09:26N 29°19' W 094°51'6 4.7
2018-Feb-20 08:14N 29°23' W 094°46'2 2.9
2018-Feb-20 07:40N 29°24' W 094°45'1 4.5
2018-Feb-20 07:24N 29°25' W 094°44'2 4.6
2018-Feb-20 07:00N 29°26' W 094°42'16 2.1
2018-Feb-19 23:13N 29°34' W 094°26'0 0.0
2018-Feb-19 22:51N 29°34' W 094°26'0 0.1
2018-Feb-19 22:08N 29°34' W 094°25'0 1.7
2018-Feb-19 21:53N 29°34' W 094°25'2 3.7
2018-Feb-19 21:24N 29°36' W 094°24'1 3.3
2018-Feb-19 21:00N 29°36' W 094°23'2 4.0
2018-Feb-19 20:29N 29°37' W 094°21'0 0.7
2018-Feb-19 19:59N 29°37' W 094°20'0 0.1
2018-Feb-19 19:29N 29°37' W 094°20'1 1.1
2018-Feb-19 19:00N 29°37' W 094°20'0 0.5
2018-Feb-19 18:29N 29°38' W 094°19'0 0.7
2018-Feb-19 18:00N 29°38' W 094°19'1 1.7
2018-Feb-19 17:30N 29°38' W 094°18'3 5.2
2018-Feb-19 17:00N 29°39' W 094°16'3 5.5
2018-Feb-19 16:30N 29°41' W 094°13'3 5.3
2018-Feb-19 16:00N 29°41' W 094°10'2 4.2
2018-Feb-19 15:30N 29°43' W 094°08'3 5.6
2018-Feb-19 15:00N 29°44' W 094°05'3 5.3
2018-Feb-19 14:30N 29°46' W 094°03'3 5.4
2018-Feb-19 14:00N 29°48' W 094°01'2 4.7
2018-Feb-19 13:30N 29°49' W 093°58'0 0.7
2018-Feb-19 13:00N 29°49' W 093°58'0 0.0
2018-Feb-19 12:30N 29°49' W 093°58'0 0.0
2018-Feb-19 12:00N 29°49' W 093°58'0 0.0
2018-Feb-19 11:30N 29°49' W 093°58'0 0.0
2018-Feb-19 11:00N 29°49' W 093°58'0 0.0
2018-Feb-19 10:30N 29°49' W 093°58'0 0.0
2018-Feb-19 10:00N 29°49' W 093°58'0 0.0
2018-Feb-19 09:30N 29°49' W 093°58'0 0.0
2018-Feb-19 09:00N 29°49' W 093°58'0 0.0
2018-Feb-19 08:30N 29°49' W 093°58'0 0.0
2018-Feb-19 08:00N 29°49' W 093°58'0 0.0
2018-Feb-19 07:30N 29°49' W 093°58'0 0.0
2018-Feb-19 07:00N 29°49' W 093°58'0 0.0
2018-Feb-19 06:30N 29°49' W 093°58'0 0.0
2018-Feb-19 06:00N 29°49' W 093°58'0 0.0
2018-Feb-19 05:30N 29°49' W 093°58'0 0.0
2018-Feb-19 05:00N 29°49' W 093°58'0 0.0
2018-Feb-19 04:30N 29°49' W 093°58'0 0.0
2018-Feb-19 04:00N 29°49' W 093°58'0 0.0
2018-Feb-19 03:30N 29°49' W 093°58'0 0.0
2018-Feb-19 03:01N 29°49' W 093°58'0 0.0
2018-Feb-19 02:30N 29°49' W 093°58'0 0.0
2018-Feb-19 02:00N 29°49' W 093°58'0 0.0
2018-Feb-19 01:30N 29°49' W 093°58'0 0.0
2018-Feb-19 01:00N 29°49' W 093°58'0 0.0
2018-Feb-19 00:30N 29°49' W 093°58'0 0.0
2018-Feb-19 00:01N 29°49' W 093°58'2 3.0
2018-Feb-18 23:30N 29°51' W 093°57'3 6.9
2018-Feb-18 23:00N 29°53' W 093°55'4 7.2
2018-Feb-18 22:30N 29°56' W 093°52'3 5.6
2018-Feb-18 22:00N 29°59' W 093°50'3 6.6
2018-Feb-18 21:30N 29°60' W 093°47'3 6.5
2018-Feb-18 21:00N 30°02' W 093°44'2 4.8
2018-Feb-18 20:31N 30°03' W 093°42'4 8.0
2018-Feb-18 20:00N 30°04' W 093°37'3 7.0
2018-Feb-18 19:30N 30°04' W 093°33'4 7.2
2018-Feb-18 19:00N 30°04' W 093°29'3 6.7
2018-Feb-18 18:31N 30°04' W 093°25'3 6.3
2018-Feb-18 18:00N 30°04' W 093°22'3 5.1
2018-Feb-18 17:30N 30°04' W 093°25'3 6.9
2018-Feb-18 17:00N 30°04' W 093°29'3 6.8
2018-Feb-18 16:30N 30°04' W 093°32'3 6.8
2018-Feb-18 16:00N 30°04' W 093°36'4 7.2
2018-Feb-18 15:29N 30°04' W 093°41'3 5.7
2018-Feb-18 15:00N 30°03' W 093°44'1 1.1
2018-Feb-18 14:30N 30°03' W 093°44'0 0.1
2018-Feb-18 14:00N 30°03' W 093°44'0 0.0
2018-Feb-18 13:30N 30°03' W 093°44'0 0.0
2018-Feb-18 13:00N 30°03' W 093°44'0 0.0
2018-Feb-18 12:30N 30°03' W 093°44'0 0.0
2018-Feb-18 11:58N 30°03' W 093°44'0 0.0
2018-Feb-18 11:30N 30°03' W 093°44'0 0.0
2018-Feb-18 11:00N 30°03' W 093°44'1 2.3
2018-Feb-18 10:30N 30°02' W 093°44'0 0.0
2018-Feb-18 09:56N 30°02' W 093°44'0 0.0
2018-Feb-18 09:30N 30°02' W 093°44'0 0.0
2018-Feb-18 08:59N 30°02' W 093°44'0 0.0
2018-Feb-18 08:30N 30°02' W 093°44'0 0.0
2018-Feb-18 07:59N 30°02' W 093°44'0 0.0
2018-Feb-18 07:29N 30°02' W 093°44'0 0.0
2018-Feb-18 06:58N 30°02' W 093°44'0 0.0
2018-Feb-18 06:30N 30°02' W 093°44'0 0.0
2018-Feb-18 06:00N 30°02' W 093°44'0 0.0
2018-Feb-18 05:30N 30°02' W 093°44'0 0.0
2018-Feb-18 04:57N 30°02' W 093°44'0 0.0
2018-Feb-18 04:29N 30°02' W 093°44'0 0.0
2018-Feb-18 03:57N 30°02' W 093°44'0 0.0
2018-Feb-18 03:30N 30°02' W 093°44'0 0.0
2018-Feb-18 02:58N 30°02' W 093°44'0 0.0
2018-Feb-18 02:28N 30°02' W 093°44'1 2.4
2018-Feb-18 02:00N 30°03' W 093°43'2 4.7
2018-Feb-18 01:30N 30°04' W 093°41'2 4.8
2018-Feb-18 01:00N 30°04' W 093°38'2 3.6
2018-Feb-18 00:29N 30°04' W 093°36'2 3.8
2018-Feb-18 00:00N 30°04' W 093°34'2 3.8
2018-Feb-17 23:30N 30°04' W 093°32'2 3.3
2018-Feb-17 23:00N 30°04' W 093°30'2 4.9
2018-Feb-17 22:30N 30°04' W 093°27'2 4.4
2018-Feb-17 22:00N 30°04' W 093°24'2 4.4
2018-Feb-17 21:30N 30°04' W 093°22'2 3.7
2018-Feb-17 21:00N 30°05' W 093°20'2 4.1
2018-Feb-17 20:31N 30°06' W 093°18'2 4.3
2018-Feb-17 20:00N 30°05' W 093°17'1 2.1
2018-Feb-17 19:30N 30°04' W 093°16'0 0.1
2018-Feb-17 19:00N 30°04' W 093°16'0 0.1
2018-Feb-17 18:30N 30°04' W 093°16'0 0.0
2018-Feb-17 18:00N 30°04' W 093°16'0 0.2
2018-Feb-17 17:30N 30°04' W 093°16'1 1.5
2018-Feb-17 17:00N 30°03' W 093°16'3 5.1
2018-Feb-17 16:31N 30°01' W 093°14'2 3.8
2018-Feb-17 16:00N 29°59' W 093°13'0 0.0
2018-Feb-17 15:30N 29°59' W 093°13'0 0.0
2018-Feb-17 15:00N 29°59' W 093°13'0 0.0
2018-Feb-17 14:30N 29°59' W 093°13'0 0.0
2018-Feb-17 14:00N 29°59' W 093°13'0 0.0
2018-Feb-17 13:30N 29°59' W 093°13'0 0.0
2018-Feb-17 13:00N 29°59' W 093°13'0 0.0
2018-Feb-17 12:30N 29°59' W 093°13'0 0.0
2018-Feb-17 12:00N 29°59' W 093°13'0 0.0
2018-Feb-17 11:30N 29°59' W 093°13'0 0.0
2018-Feb-17 11:00N 29°59' W 093°13'0 0.0
2018-Feb-17 10:30N 29°59' W 093°13'0 0.0
2018-Feb-17 10:00N 29°59' W 093°13'0 0.0
2018-Feb-17 09:30N 29°59' W 093°13'0 0.0
2018-Feb-17 09:00N 29°59' W 093°13'0 0.0
2018-Feb-17 08:30N 29°59' W 093°13'0 0.0
2018-Feb-17 08:00N 29°59' W 093°13'0 0.0
2018-Feb-17 07:30N 29°59' W 093°13'0 0.0
2018-Feb-17 07:00N 29°59' W 093°13'0 0.0
2018-Feb-17 06:30N 29°59' W 093°13'0 0.0
2018-Feb-17 06:00N 29°59' W 093°13'0 0.0
2018-Feb-17 05:30N 29°59' W 093°13'0 0.0
2018-Feb-17 05:00N 29°59' W 093°13'1 1.4
2018-Feb-17 04:30N 29°59' W 093°12'0 0.1
2018-Feb-17 04:00N 29°59' W 093°12'0 0.0
2018-Feb-17 03:30N 29°59' W 093°12'0 0.0
2018-Feb-17 03:00N 29°59' W 093°12'0 0.0
2018-Feb-17 02:30N 29°59' W 093°12'2 3.5
2018-Feb-17 02:00N 29°57' W 093°11'3 4.7
2018-Feb-17 01:28N 29°56' W 093°08'2 4.6
2018-Feb-17 00:56N 29°56' W 093°06'2 5.5
2018-Feb-17 00:30N 29°56' W 093°03'36 4.6
2018-Feb-16 16:43N 29°51' W 092°22'1 4.5
2018-Feb-16 16:28N 29°51' W 092°20'1 2.9
2018-Feb-16 16:00N 29°50' W 092°19'2 4.3
2018-Feb-16 15:30N 29°49' W 092°17'2 4.8
2018-Feb-16 15:00N 29°48' W 092°14'2 4.5
2018-Feb-16 14:30N 29°47' W 092°12'2 4.5
2018-Feb-16 14:00N 29°47' W 092°10'3 5.5
2018-Feb-16 13:30N 29°48' W 092°07'3 5.1
2018-Feb-16 13:00N 29°49' W 092°04'3 5.1
2018-Feb-16 12:30N 29°49' W 092°01'3 5.1
2018-Feb-16 12:00N 29°50' W 091°58'1 1.5
2018-Feb-16 11:24N 29°50' W 091°57'0 0.2
2018-Feb-16 11:00N 29°51' W 091°57'0 0.0
2018-Feb-16 10:22N 29°50' W 091°57'0 0.0
2018-Feb-16 10:00N 29°51' W 091°57'0 0.0
2018-Feb-16 09:30N 29°51' W 091°57'0 0.0
2018-Feb-16 09:00N 29°51' W 091°57'0 0.0
2018-Feb-16 08:30N 29°51' W 091°57'0 0.0
2018-Feb-16 08:00N 29°51' W 091°57'0 0.0
2018-Feb-16 07:29N 29°51' W 091°57'0 0.0
2018-Feb-16 07:00N 29°51' W 091°57'0 0.0
2018-Feb-16 06:30N 29°51' W 091°57'0 0.0
2018-Feb-16 06:00N 29°51' W 091°57'0 0.0
2018-Feb-16 05:30N 29°51' W 091°57'0 0.0
2018-Feb-16 05:00N 29°51' W 091°57'0 0.0
2018-Feb-16 04:30N 29°51' W 091°57'0 0.0
2018-Feb-16 04:00N 29°51' W 091°57'0 0.0
2018-Feb-16 02:56N 29°50' W 091°57'0 0.1
2018-Feb-16 02:30N 29°51' W 091°57'0 0.0
2018-Feb-16 02:00N 29°51' W 091°57'0 0.0
2018-Feb-16 01:30N 29°51' W 091°57'0 0.0
2018-Feb-16 01:00N 29°51' W 091°57'0 0.0
2018-Feb-16 00:30N 29°51' W 091°57'0 0.0
2018-Feb-16 00:00N 29°51' W 091°57'  
Track history (hours):
 
Tides and Currents Weather Stations Pressure Air Temp Water Temp Dewpoint Dewpoint Depression Visibility Wind Speed Wind Dir Waves Ship Positions

Lucas Paul

Owner: Devall Towing Third Generation, sulphur, LA. More information available from US FCC via Universal Licensing System and Coast Guard Vessel Documentation Center.

Last reported at 2018-Feb-25 03:46 UTC. Time now 2018-Feb-25 23:57 UTC.
Position N 29°47' W 095°06'.

Length 20 m.

Type: Towing. MMSI: 367798350.

Date/timePositionNaut miles runAvg speedWind from/ knotsBaromVisibWave heightAir tempDewpointWater temp
2018-Feb-25 03:46N 29°47' W 095°06'1 1.8
2018-Feb-25 03:22N 29°46' W 095°06'0 1.2
2018-Feb-25 03:00N 29°46' W 095°06'2 4.9
2018-Feb-25 02:30N 29°44' W 095°03'3 5.9
2018-Feb-25 02:00N 29°42' W 095°01'3 6.7
2018-Feb-25 01:30N 29°40' W 094°58'4 7.1
2018-Feb-25 01:01N 29°36' W 094°57'4 7.1
2018-Feb-25 00:30N 29°34' W 094°55'4 7.6
2018-Feb-25 00:00N 29°30' W 094°52'33 2.7
2018-Feb-24 11:53N 29°03' W 095°13'2 4.6
2018-Feb-24 11:29N 29°01' W 095°14'  
2018-Feb-20 14:28N 29°06' W 095°12'3 5.1
2018-Feb-20 13:51N 29°08' W 095°10'11 4.3
2018-Feb-20 11:26N 29°15' W 095°01'5 4.5
2018-Feb-20 10:14N 29°17' W 094°55'2 4.7
2018-Feb-20 09:46N 29°18' W 094°53'2 5.5
2018-Feb-20 09:26N 29°19' W 094°51'6 4.7
2018-Feb-20 08:14N 29°23' W 094°46'2 2.9
2018-Feb-20 07:40N 29°24' W 094°45'1 4.5
2018-Feb-20 07:24N 29°25' W 094°44'2 4.6
2018-Feb-20 07:00N 29°26' W 094°42'16 2.1
2018-Feb-19 23:13N 29°34' W 094°26'0 0.0
2018-Feb-19 22:51N 29°34' W 094°26'0 0.1
2018-Feb-19 22:08N 29°34' W 094°25'0 1.7
2018-Feb-19 21:53N 29°34' W 094°25'2 3.7
2018-Feb-19 21:24N 29°36' W 094°24'1 3.3
2018-Feb-19 21:00N 29°36' W 094°23'2 4.0
2018-Feb-19 20:29N 29°37' W 094°21'0 0.7
2018-Feb-19 19:59N 29°37' W 094°20'0 0.1
2018-Feb-19 19:29N 29°37' W 094°20'1 1.1
2018-Feb-19 19:00N 29°37' W 094°20'0 0.5
2018-Feb-19 18:29N 29°38' W 094°19'0 0.7
2018-Feb-19 18:00N 29°38' W 094°19'1 1.7
2018-Feb-19 17:30N 29°38' W 094°18'3 5.2
2018-Feb-19 17:00N 29°39' W 094°16'3 5.5
2018-Feb-19 16:30N 29°41' W 094°13'3 5.3
2018-Feb-19 16:00N 29°41' W 094°10'2 4.2
2018-Feb-19 15:30N 29°43' W 094°08'3 5.6
2018-Feb-19 15:00N 29°44' W 094°05'3 5.3
2018-Feb-19 14:30N 29°46' W 094°03'3 5.4
2018-Feb-19 14:00N 29°48' W 094°01'2 4.7
2018-Feb-19 13:30N 29°49' W 093°58'0 0.7
2018-Feb-19 13:00N 29°49' W 093°58'0 0.0
2018-Feb-19 12:30N 29°49' W 093°58'0 0.0
2018-Feb-19 12:00N 29°49' W 093°58'0 0.0
2018-Feb-19 11:30N 29°49' W 093°58'0 0.0
2018-Feb-19 11:00N 29°49' W 093°58'0 0.0
2018-Feb-19 10:30N 29°49' W 093°58'0 0.0
2018-Feb-19 10:00N 29°49' W 093°58'0 0.0
2018-Feb-19 09:30N 29°49' W 093°58'0 0.0
2018-Feb-19 09:00N 29°49' W 093°58'0 0.0
2018-Feb-19 08:30N 29°49' W 093°58'0 0.0
2018-Feb-19 08:00N 29°49' W 093°58'0 0.0
2018-Feb-19 07:30N 29°49' W 093°58'0 0.0
2018-Feb-19 07:00N 29°49' W 093°58'0 0.0
2018-Feb-19 06:30N 29°49' W 093°58'0 0.0
2018-Feb-19 06:00N 29°49' W 093°58'0 0.0
2018-Feb-19 05:30N 29°49' W 093°58'0 0.0
2018-Feb-19 05:00N 29°49' W 093°58'0 0.0
2018-Feb-19 04:30N 29°49' W 093°58'0 0.0
2018-Feb-19 04:00N 29°49' W 093°58'0 0.0
2018-Feb-19 03:30N 29°49' W 093°58'0 0.0
2018-Feb-19 03:01N 29°49' W 093°58'0 0.0
2018-Feb-19 02:30N 29°49' W 093°58'0 0.0
2018-Feb-19 02:00N 29°49' W 093°58'0 0.0
2018-Feb-19 01:30N 29°49' W 093°58'0 0.0
2018-Feb-19 01:00N 29°49' W 093°58'0 0.0
2018-Feb-19 00:30N 29°49' W 093°58'0 0.0
2018-Feb-19 00:01N 29°49' W 093°58'2 3.0
2018-Feb-18 23:30N 29°51' W 093°57'3 6.9
2018-Feb-18 23:00N 29°53' W 093°55'4 7.2
2018-Feb-18 22:30N 29°56' W 093°52'3 5.6
2018-Feb-18 22:00N 29°59' W 093°50'3 6.6
2018-Feb-18 21:30N 29°60' W 093°47'3 6.5
2018-Feb-18 21:00N 30°02' W 093°44'2 4.8
2018-Feb-18 20:31N 30°03' W 093°42'4 8.0
2018-Feb-18 20:00N 30°04' W 093°37'3 7.0
2018-Feb-18 19:30N 30°04' W 093°33'4 7.2
2018-Feb-18 19:00N 30°04' W 093°29'3 6.7
2018-Feb-18 18:31N 30°04' W 093°25'3 6.3
2018-Feb-18 18:00N 30°04' W 093°22'3 5.1
2018-Feb-18 17:30N 30°04' W 093°25'3 6.9
2018-Feb-18 17:00N 30°04' W 093°29'3 6.8
2018-Feb-18 16:30N 30°04' W 093°32'3 6.8
2018-Feb-18 16:00N 30°04' W 093°36'4 7.2
2018-Feb-18 15:29N 30°04' W 093°41'3 5.7
2018-Feb-18 15:00N 30°03' W 093°44'1 1.1
2018-Feb-18 14:30N 30°03' W 093°44'0 0.1
2018-Feb-18 14:00N 30°03' W 093°44'0 0.0
2018-Feb-18 13:30N 30°03' W 093°44'0 0.0
2018-Feb-18 13:00N 30°03' W 093°44'0 0.0
2018-Feb-18 12:30N 30°03' W 093°44'0 0.0
2018-Feb-18 11:58N 30°03' W 093°44'0 0.0
2018-Feb-18 11:30N 30°03' W 093°44'0 0.0
2018-Feb-18 11:00N 30°03' W 093°44'1 2.3
2018-Feb-18 10:30N 30°02' W 093°44'0 0.0
2018-Feb-18 09:56N 30°02' W 093°44'0 0.0
2018-Feb-18 09:30N 30°02' W 093°44'0 0.0
2018-Feb-18 08:59N 30°02' W 093°44'0 0.0
2018-Feb-18 08:30N 30°02' W 093°44'0 0.0
2018-Feb-18 07:59N 30°02' W 093°44'0 0.0
2018-Feb-18 07:29N 30°02' W 093°44'0 0.0
2018-Feb-18 06:58N 30°02' W 093°44'0 0.0
2018-Feb-18 06:30N 30°02' W 093°44'0 0.0
2018-Feb-18 06:00N 30°02' W 093°44'0 0.0
2018-Feb-18 05:30N 30°02' W 093°44'0 0.0
2018-Feb-18 04:57N 30°02' W 093°44'0 0.0
2018-Feb-18 04:29N 30°02' W 093°44'0 0.0
2018-Feb-18 03:57N 30°02' W 093°44'0 0.0
2018-Feb-18 03:30N 30°02' W 093°44'0 0.0
2018-Feb-18 02:58N 30°02' W 093°44'0 0.0
2018-Feb-18 02:28N 30°02' W 093°44'1 2.4
2018-Feb-18 02:00N 30°03' W 093°43'2 4.7
2018-Feb-18 01:30N 30°04' W 093°41'2 4.8
2018-Feb-18 01:00N 30°04' W 093°38'2 3.6
2018-Feb-18 00:29N 30°04' W 093°36'2 3.8
2018-Feb-18 00:00N 30°04' W 093°34'2 3.8
2018-Feb-17 23:30N 30°04' W 093°32'2 3.3
2018-Feb-17 23:00N 30°04' W 093°30'2 4.9
2018-Feb-17 22:30N 30°04' W 093°27'2 4.4
2018-Feb-17 22:00N 30°04' W 093°24'2 4.4
2018-Feb-17 21:30N 30°04' W 093°22'2 3.7
2018-Feb-17 21:00N 30°05' W 093°20'2 4.1
2018-Feb-17 20:31N 30°06' W 093°18'2 4.3
2018-Feb-17 20:00N 30°05' W 093°17'1 2.1
2018-Feb-17 19:30N 30°04' W 093°16'0 0.1
2018-Feb-17 19:00N 30°04' W 093°16'0 0.1
2018-Feb-17 18:30N 30°04' W 093°16'0 0.0
2018-Feb-17 18:00N 30°04' W 093°16'0 0.2
2018-Feb-17 17:30N 30°04' W 093°16'1 1.5
2018-Feb-17 17:00N 30°03' W 093°16'3 5.1
2018-Feb-17 16:31N 30°01' W 093°14'2 3.8
2018-Feb-17 16:00N 29°59' W 093°13'0 0.0
2018-Feb-17 15:30N 29°59' W 093°13'0 0.0
2018-Feb-17 15:00N 29°59' W 093°13'0 0.0
2018-Feb-17 14:30N 29°59' W 093°13'0 0.0
2018-Feb-17 14:00N 29°59' W 093°13'0 0.0
2018-Feb-17 13:30N 29°59' W 093°13'0 0.0
2018-Feb-17 13:00N 29°59' W 093°13'0 0.0
2018-Feb-17 12:30N 29°59' W 093°13'0 0.0
2018-Feb-17 12:00N 29°59' W 093°13'0 0.0
2018-Feb-17 11:30N 29°59' W 093°13'0 0.0
2018-Feb-17 11:00N 29°59' W 093°13'0 0.0
2018-Feb-17 10:30N 29°59' W 093°13'0 0.0
2018-Feb-17 10:00N 29°59' W 093°13'0 0.0
2018-Feb-17 09:30N 29°59' W 093°13'0 0.0
2018-Feb-17 09:00N 29°59' W 093°13'0 0.0
2018-Feb-17 08:30N 29°59' W 093°13'0 0.0
2018-Feb-17 08:00N 29°59' W 093°13'0 0.0
2018-Feb-17 07:30N 29°59' W 093°13'0 0.0
2018-Feb-17 07:00N 29°59' W 093°13'0 0.0
2018-Feb-17 06:30N 29°59' W 093°13'0 0.0
2018-Feb-17 06:00N 29°59' W 093°13'0 0.0
2018-Feb-17 05:30N 29°59' W 093°13'0 0.0
2018-Feb-17 05:00N 29°59' W 093°13'1 1.4
2018-Feb-17 04:30N 29°59' W 093°12'0 0.1
2018-Feb-17 04:00N 29°59' W 093°12'0 0.0
2018-Feb-17 03:30N 29°59' W 093°12'0 0.0
2018-Feb-17 03:00N 29°59' W 093°12'0 0.0
2018-Feb-17 02:30N 29°59' W 093°12'2 3.5
2018-Feb-17 02:00N 29°57' W 093°11'3 4.7
2018-Feb-17 01:28N 29°56' W 093°08'2 4.6
2018-Feb-17 00:56N 29°56' W 093°06'2 5.5
2018-Feb-17 00:30N 29°56' W 093°03'36 4.6
2018-Feb-16 16:43N 29°51' W 092°22'1 4.5
2018-Feb-16 16:28N 29°51' W 092°20'1 2.9
2018-Feb-16 16:00N 29°50' W 092°19'2 4.3
2018-Feb-16 15:30N 29°49' W 092°17'2 4.8
2018-Feb-16 15:00N 29°48' W 092°14'2 4.5
2018-Feb-16 14:30N 29°47' W 092°12'2 4.5
2018-Feb-16 14:00N 29°47' W 092°10'3 5.5
2018-Feb-16 13:30N 29°48' W 092°07'3 5.1
2018-Feb-16 13:00N 29°49' W 092°04'3 5.1
2018-Feb-16 12:30N 29°49' W 092°01'3 5.1
2018-Feb-16 12:00N 29°50' W 091°58'1 1.5
2018-Feb-16 11:24N 29°50' W 091°57'0 0.2
2018-Feb-16 11:00N 29°51' W 091°57'0 0.0
2018-Feb-16 10:22N 29°50' W 091°57'0 0.0
2018-Feb-16 10:00N 29°51' W 091°57'0 0.0
2018-Feb-16 09:30N 29°51' W 091°57'0 0.0
2018-Feb-16 09:00N 29°51' W 091°57'0 0.0
2018-Feb-16 08:30N 29°51' W 091°57'0 0.0
2018-Feb-16 08:00N 29°51' W 091°57'0 0.0
2018-Feb-16 07:29N 29°51' W 091°57'0 0.0
2018-Feb-16 07:00N 29°51' W 091°57'0 0.0
2018-Feb-16 06:30N 29°51' W 091°57'0 0.0
2018-Feb-16 06:00N 29°51' W 091°57'0 0.0
2018-Feb-16 05:30N 29°51' W 091°57'0 0.0
2018-Feb-16 05:00N 29°51' W 091°57'0 0.0
2018-Feb-16 04:30N 29°51' W 091°57'0 0.0
2018-Feb-16 04:00N 29°51' W 091°57'0 0.0
2018-Feb-16 02:56N 29°50' W 091°57'0 0.1
2018-Feb-16 02:30N 29°51' W 091°57'0 0.0
2018-Feb-16 02:00N 29°51' W 091°57'0 0.0
2018-Feb-16 01:30N 29°51' W 091°57'0 0.0
2018-Feb-16 01:00N 29°51' W 091°57'0 0.0
2018-Feb-16 00:30N 29°51' W 091°57'0 0.0
2018-Feb-16 00:00N 29°51' W 091°57'  

Dump ship's entire track history